createdAt,value
2022-08-09T00:01:42.821Z,24.22
2022-08-09T00:04:35.343Z,24.18
2022-08-09T00:07:07.625Z,24.13
2022-08-09T00:09:39.630Z,24.10
2022-08-09T00:12:22.368Z,24.09
2022-08-09T00:14:56.605Z,23.99
2022-08-09T00:18:07.531Z,24.00
2022-08-09T00:20:13.766Z,23.98
2022-08-09T00:22:43.126Z,23.98
2022-08-09T00:25:23.191Z,23.96
2022-08-09T00:28:01.356Z,23.95
2022-08-09T00:30:33.861Z,23.93
2022-08-09T00:33:01.946Z,23.99
2022-08-09T00:35:43.383Z,23.92
2022-08-09T00:38:13.830Z,23.88
2022-08-09T00:40:53.308Z,23.93
2022-08-09T00:44:11.607Z,23.93
2022-08-09T00:46:11.003Z,23.84
2022-08-09T00:48:49.392Z,23.86
2022-08-09T00:51:19.385Z,23.86
2022-08-09T00:53:51.849Z,23.85
2022-08-09T00:56:22.270Z,23.80
2022-08-09T00:58:51.613Z,23.72
2022-08-09T01:01:32.322Z,23.68
2022-08-09T01:04:20.929Z,23.61
2022-08-09T01:07:37.780Z,23.55
2022-08-09T01:11:03.857Z,23.43
2022-08-09T01:13:58.817Z,23.47
2022-08-09T01:16:37.011Z,23.40
2022-08-09T01:20:02.998Z,23.50
2022-08-09T01:22:48.214Z,23.46
2022-08-09T01:25:37.481Z,23.48
2022-08-09T01:28:11.472Z,23.37
2022-08-09T01:30:52.339Z,23.38
2022-08-09T01:33:35.197Z,23.35
2022-08-09T01:36:16.768Z,23.39
2022-08-09T01:38:49.191Z,23.32
2022-08-09T01:41:28.277Z,23.37
2022-08-09T01:44:01.946Z,23.36
2022-08-09T01:46:35.753Z,23.44
2022-08-09T01:49:48.757Z,23.44
2022-08-09T01:52:24.239Z,23.33
2022-08-09T01:54:57.914Z,23.36
2022-08-09T01:57:39.862Z,23.36
2022-08-09T02:00:34.244Z,23.35
2022-08-09T02:03:05.560Z,23.30
2022-08-09T02:05:53.631Z,23.33
2022-08-09T02:08:39.062Z,23.30
2022-08-09T02:11:20.260Z,23.24
2022-08-09T02:13:55.397Z,23.14
2022-08-09T02:17:00.157Z,23.20
2022-08-09T02:19:38.549Z,23.11
2022-08-09T02:22:45.678Z,23.07
2022-08-09T02:25:31.269Z,23.00
2022-08-09T02:28:19.852Z,22.90
2022-08-09T02:31:06.381Z,22.91
2022-08-09T02:34:07.393Z,22.87
2022-08-09T02:36:39.584Z,22.83
2022-08-09T02:39:19.907Z,22.80
2022-08-09T02:42:08.881Z,22.69
2022-08-09T02:44:42.895Z,22.70
2022-08-09T02:47:16.664Z,22.66
2022-08-09T02:50:05.940Z,22.60
2022-08-09T02:52:49.684Z,22.56
2022-08-09T02:55:39.398Z,22.44
2022-08-09T02:58:35.680Z,22.36
2022-08-09T03:01:10.851Z,22.21
2022-08-09T03:04:16.627Z,22.20
2022-08-09T03:06:31.043Z,22.17
2022-08-09T03:09:03.184Z,22.14
2022-08-09T03:12:05.311Z,22.07
2022-08-09T03:14:21.807Z,22.02
2022-08-09T03:16:58.294Z,21.98
2022-08-09T03:19:58.276Z,21.94
2022-08-09T03:22:29.940Z,21.87
2022-08-09T03:25:06.669Z,21.74
2022-08-09T03:27:52.068Z,21.74
2022-08-09T03:30:29.630Z,21.72
2022-08-09T03:33:16.806Z,21.71
2022-08-09T03:36:15.858Z,21.67
2022-08-09T03:38:44.744Z,21.61
2022-08-09T03:41:16.681Z,21.61
2022-08-09T03:44:03.169Z,21.58
2022-08-09T03:46:37.015Z,21.48
2022-08-09T03:49:07.937Z,21.52
2022-08-09T03:51:58.588Z,21.51
2022-08-09T03:54:38.519Z,21.45
2022-08-09T03:57:12.158Z,21.40
2022-08-09T03:59:53.733Z,21.33
2022-08-09T04:02:28.361Z,21.31
2022-08-09T04:05:06.512Z,21.28
2022-08-09T04:07:52.906Z,21.16
2022-08-09T04:10:29.658Z,21.18
2022-08-09T04:13:04.349Z,21.21
2022-08-09T04:16:17.097Z,21.19
2022-08-09T04:18:22.343Z,21.20
2022-08-09T04:20:54.021Z,21.20
2022-08-09T04:23:26.328Z,21.22
2022-08-09T04:25:56.532Z,21.21
2022-08-09T04:28:34.460Z,21.21
2022-08-09T04:31:09.751Z,21.21
2022-08-09T04:33:51.870Z,21.21
2022-08-09T04:36:24.456Z,21.20
2022-08-09T04:38:54.721Z,21.16
2022-08-09T04:41:32.318Z,21.11
2022-08-09T04:44:11.041Z,21.12
2022-08-09T04:46:59.517Z,21.10
2022-08-09T04:49:52.836Z,21.01
2022-08-09T04:52:26.538Z,21.04
2022-08-09T04:55:04.324Z,21.03
2022-08-09T04:57:53.911Z,21.02
2022-08-09T05:00:31.669Z,21.05
2022-08-09T05:03:12.770Z,21.05
2022-08-09T05:05:52.128Z,21.09
2022-08-09T05:08:35.088Z,21.10
2022-08-09T05:11:06.926Z,21.12
2022-08-09T05:13:38.896Z,21.14
2022-08-09T05:16:08.712Z,21.18
2022-08-09T05:18:57.946Z,21.18
2022-08-09T05:21:30.504Z,21.21
2022-08-09T05:24:16.058Z,21.23
2022-08-09T05:26:47.655Z,21.28
2022-08-09T05:29:35.614Z,21.30
2022-08-09T05:32:05.904Z,21.36
2022-08-09T05:34:36.896Z,21.39
2022-08-09T05:37:11.716Z,21.45
2022-08-09T05:39:42.790Z,21.50
2022-08-09T05:42:27.886Z,21.57
2022-08-09T05:44:57.045Z,21.61
2022-08-09T05:47:30.340Z,21.64
2022-08-09T05:50:25.630Z,21.78
2022-08-09T05:52:53.730Z,21.81
2022-08-09T05:55:24.208Z,21.89
2022-08-09T05:57:56.516Z,22.00
2022-08-09T06:00:29.817Z,22.13
2022-08-09T06:03:01.860Z,22.21
2022-08-09T06:05:57.168Z,22.28
2022-08-09T06:08:24.512Z,22.35
2022-08-09T06:10:58.321Z,22.51
2022-08-09T06:13:28.501Z,22.56
2022-08-09T06:16:05.395Z,22.63
2022-08-09T06:18:36.627Z,22.71
2022-08-09T06:21:06.747Z,22.78
2022-08-09T06:23:57.963Z,22.88
2022-08-09T06:26:28.664Z,23.00
2022-08-09T06:29:00.166Z,23.11
2022-08-09T06:31:39.975Z,23.23
2022-08-09T06:34:26.249Z,23.41
2022-08-09T06:37:00.037Z,23.61
2022-08-09T06:39:49.281Z,23.82
2022-08-09T06:42:24.505Z,24.00
2022-08-09T06:44:54.701Z,24.15
2022-08-09T06:47:24.040Z,24.41
2022-08-09T06:50:13.862Z,24.59
2022-08-09T06:52:48.795Z,24.77
2022-08-09T06:55:22.315Z,24.90
2022-08-09T06:58:03.451Z,25.07
2022-08-09T07:00:50.845Z,25.21
2022-08-09T07:03:27.873Z,25.33
2022-08-09T07:06:04.478Z,25.45
2022-08-09T07:08:39.641Z,25.55
2022-08-09T07:11:08.579Z,25.70
2022-08-09T07:13:44.957Z,25.70
2022-08-09T07:16:42.790Z,25.85
2022-08-09T07:19:22.968Z,25.87
2022-08-09T07:21:57.653Z,26.00
2022-08-09T07:24:32.446Z,26.07
2022-08-09T07:27:26.927Z,26.14
2022-08-09T07:30:01.476Z,26.26
2022-08-09T07:32:32.334Z,26.36
2022-08-09T07:35:08.225Z,26.42
2022-08-09T07:37:45.669Z,26.48
2022-08-09T07:40:20.234Z,26.62
2022-08-09T07:42:57.768Z,26.73
2022-08-09T07:45:38.073Z,26.81
2022-08-09T07:48:25.544Z,26.89
2022-08-09T07:51:02.989Z,26.99
2022-08-09T07:54:06.552Z,27.11
2022-08-09T07:56:27.956Z,27.12
2022-08-09T07:58:59.807Z,27.29
2022-08-09T08:01:33.844Z,27.33
2022-08-09T08:04:04.991Z,27.43
2022-08-09T08:06:55.810Z,27.48
2022-08-09T08:09:38.703Z,27.51
2022-08-09T08:12:27.569Z,27.55
2022-08-09T08:15:03.135Z,27.65
2022-08-09T08:17:51.918Z,27.80
2022-08-09T08:20:30.373Z,27.88
2022-08-09T08:23:16.770Z,27.93
2022-08-09T08:26:06.518Z,28.05
2022-08-09T08:28:39.673Z,28.01
2022-08-09T08:31:15.022Z,28.20
2022-08-09T08:33:52.981Z,28.34
2022-08-09T08:36:28.761Z,28.40
2022-08-09T08:39:00.495Z,28.45
2022-08-09T08:41:50.506Z,28.54
2022-08-09T08:44:22.974Z,28.60
2022-08-09T08:47:12.060Z,28.69
2022-08-09T08:49:48.118Z,28.72
2022-08-09T08:52:58.317Z,28.78
2022-08-09T08:55:23.246Z,28.89
2022-08-09T08:57:58.177Z,29.00
2022-08-09T09:00:34.647Z,29.05
2022-08-09T09:03:11.294Z,29.13
2022-08-09T09:06:03.252Z,29.21
2022-08-09T09:08:40.987Z,29.29
2022-08-09T09:11:13.920Z,29.38
2022-08-09T09:13:57.233Z,29.46
2022-08-09T09:16:35.963Z,29.58
2022-08-09T09:22:26.653Z,29.72
2022-08-09T09:26:01.353Z,29.77
2022-08-09T09:28:03.826Z,29.87
2022-08-09T09:30:40.722Z,29.93
2022-08-09T09:33:13.814Z,30.06
2022-08-09T09:36:04.130Z,30.11
2022-08-09T09:38:58.245Z,30.17
2022-08-09T09:41:33.017Z,30.23
2022-08-09T09:44:12.326Z,30.24
2022-08-09T09:46:51.473Z,30.39
2022-08-09T09:49:31.935Z,30.43
2022-08-09T09:52:33.726Z,30.52
2022-08-09T09:55:24.047Z,30.61
2022-08-09T09:58:15.874Z,30.69
2022-08-09T10:01:00.191Z,30.77
2022-08-09T10:03:57.992Z,30.85
2022-08-09T10:06:42.747Z,30.85
2022-08-09T10:09:22.682Z,30.99
2022-08-09T10:12:14.211Z,30.79
2022-08-09T10:14:51.769Z,31.00
2022-08-09T10:17:39.836Z,31.15
2022-08-09T10:20:27.659Z,31.27
2022-08-09T10:23:21.185Z,31.27
2022-08-09T10:26:06.123Z,31.34
2022-08-09T10:28:43.319Z,31.45
2022-08-09T10:34:33.267Z,31.52
2022-08-09T10:36:58.099Z,31.59
2022-08-09T10:39:28.706Z,31.68
2022-08-09T10:41:57.215Z,31.70
2022-08-09T10:44:30.446Z,31.76
2022-08-09T10:48:20.499Z,31.80
2022-08-09T10:51:03.846Z,31.81
2022-08-09T10:54:05.996Z,31.77
2022-08-09T10:56:42.402Z,31.86
2022-08-09T10:59:31.278Z,31.99
2022-08-09T11:03:11.074Z,32.00
2022-08-09T11:05:30.040Z,32.04
2022-08-09T11:08:46.965Z,32.08
2022-08-09T11:11:20.230Z,32.09
2022-08-09T11:14:32.844Z,32.14
2022-08-09T11:17:02.557Z,32.10
2022-08-09T11:20:11.425Z,32.22
2022-08-09T11:22:46.110Z,32.24
2022-08-09T11:25:47.345Z,32.30
2022-08-09T11:28:54.040Z,32.37
2022-08-09T11:31:52.722Z,32.38
2022-08-09T11:34:52.526Z,32.45
2022-08-09T11:37:40.635Z,32.45
2022-08-09T11:40:13.958Z,32.51
2022-08-09T11:42:52.706Z,32.56
2022-08-09T11:45:43.094Z,32.59
2022-08-09T11:48:30.192Z,32.60
2022-08-09T11:52:48.449Z,32.61
2022-08-09T11:54:27.576Z,32.67
2022-08-09T11:58:00.631Z,32.67
2022-08-09T12:00:42.486Z,32.70
2022-08-09T12:03:54.896Z,32.72
2022-08-09T12:06:31.976Z,32.73
2022-08-09T12:09:19.294Z,32.73
2022-08-09T12:12:12.347Z,32.77
2022-08-09T12:15:08.398Z,32.75
2022-08-09T12:17:44.494Z,32.80
2022-08-09T12:20:22.185Z,32.86
2022-08-09T12:22:57.011Z,32.90
2022-08-09T12:25:36.582Z,32.95
2022-08-09T12:29:09.978Z,32.99
2022-08-09T12:32:02.024Z,33.00
2022-08-09T12:34:38.474Z,33.05
2022-08-09T12:37:23.471Z,32.96
2022-08-09T12:40:11.806Z,33.00
2022-08-09T12:42:45.231Z,33.05
2022-08-09T12:45:32.280Z,33.13
2022-08-09T12:48:20.488Z,33.15
2022-08-09T12:51:00.033Z,33.19
2022-08-09T12:53:40.746Z,33.23
2022-08-09T12:56:43.061Z,33.24
2022-08-09T12:59:23.062Z,33.29
2022-08-09T13:02:00.150Z,33.33
2022-08-09T13:04:38.296Z,33.31
2022-08-09T13:07:19.566Z,33.30
2022-08-09T13:10:04.865Z,33.38
2022-08-09T13:12:40.033Z,33.37
2022-08-09T13:15:25.124Z,33.38
2022-08-09T13:18:05.355Z,33.43
2022-08-09T13:20:37.911Z,33.49
2022-08-09T13:24:42.089Z,33.42
2022-08-09T13:26:49.780Z,33.53
2022-08-09T13:29:42.052Z,33.56
2022-08-09T13:32:25.392Z,33.57
2022-08-09T13:34:55.880Z,33.61
2022-08-09T13:37:50.986Z,33.69
2022-08-09T13:41:45.823Z,33.72
2022-08-09T13:43:05.147Z,33.72
2022-08-09T13:46:43.689Z,33.75
2022-08-09T13:48:27.279Z,33.79
2022-08-09T13:50:59.002Z,33.83
2022-08-09T13:53:43.571Z,33.88
2022-08-09T13:56:19.550Z,33.91
2022-08-09T13:58:53.298Z,33.93
2022-08-09T14:02:00.561Z,33.90
2022-08-09T14:04:11.479Z,33.94
2022-08-09T14:06:43.768Z,33.94
2022-08-09T14:09:15.720Z,33.93
2022-08-09T14:11:47.105Z,33.99
2022-08-09T14:14:26.132Z,34.05
2022-08-09T14:16:58.670Z,34.03
2022-08-09T14:19:26.891Z,33.91
2022-08-09T14:22:01.399Z,34.00
2022-08-09T14:24:32.637Z,34.08
2022-08-09T14:27:03.239Z,34.08
2022-08-09T14:30:34.700Z,34.12
2022-08-09T14:33:12.224Z,34.15
2022-08-09T14:35:52.327Z,34.10
2022-08-09T14:38:21.967Z,34.06
2022-08-09T14:41:04.539Z,34.04
2022-08-09T14:43:47.396Z,34.12
2022-08-09T14:47:00.985Z,34.09
2022-08-09T14:49:05.647Z,34.11
2022-08-09T14:51:42.368Z,34.17
2022-08-09T14:54:11.132Z,34.22
2022-08-09T14:56:57.227Z,34.22
2022-08-09T14:59:30.079Z,34.24
2022-08-09T15:02:01.573Z,34.21
2022-08-09T15:04:30.881Z,34.21
2022-08-09T15:07:02.478Z,34.30
2022-08-09T15:10:07.521Z,34.32
2022-08-09T15:12:19.272Z,34.30
2022-08-09T15:14:49.955Z,34.34
2022-08-09T15:17:18.795Z,34.35
2022-08-09T15:19:54.582Z,34.33
2022-08-09T15:22:28.462Z,34.38
2022-08-09T15:24:58.368Z,34.37
2022-08-09T15:27:29.394Z,34.40
2022-08-09T15:30:59.132Z,34.40
2022-08-09T15:33:07.348Z,34.37
2022-08-09T15:35:40.769Z,34.38
2022-08-09T15:38:13.419Z,34.43
2022-08-09T15:40:44.353Z,34.43
2022-08-09T15:43:13.201Z,34.48
2022-08-09T15:46:07.491Z,34.43
2022-08-09T15:48:32.937Z,34.48
2022-08-09T15:51:02.641Z,34.43
2022-08-09T15:54:05.507Z,34.39
2022-08-09T15:56:38.035Z,34.35
2022-08-09T15:59:08.963Z,34.41
2022-08-09T16:01:42.000Z,34.34
2022-08-09T16:04:13.546Z,34.41
2022-08-09T16:06:44.599Z,34.39
2022-08-09T16:09:19.345Z,34.43
2022-08-09T16:12:01.251Z,34.35
2022-08-09T16:14:31.651Z,34.37
2022-08-09T16:17:01.451Z,34.32
2022-08-09T16:19:29.891Z,34.37
2022-08-09T16:22:05.807Z,34.36
2022-08-09T16:24:43.828Z,34.38
2022-08-09T16:27:26.812Z,34.34
2022-08-09T16:30:01.174Z,34.37
2022-08-09T16:32:56.204Z,34.36
2022-08-09T16:35:55.906Z,34.35
2022-08-09T16:38:19.277Z,34.22
2022-08-09T16:40:55.556Z,34.29
2022-08-09T16:43:26.643Z,34.26
2022-08-09T16:45:59.776Z,34.26
2022-08-09T16:48:42.731Z,34.22
2022-08-09T16:51:22.135Z,34.26
2022-08-09T16:54:18.043Z,34.18
2022-08-09T16:56:42.698Z,34.17
2022-08-09T16:59:20.259Z,34.20
2022-08-09T17:01:52.869Z,34.16
2022-08-09T17:04:21.617Z,34.14
2022-08-09T17:08:41.721Z,34.13
2022-08-09T17:09:47.658Z,34.05
2022-08-09T17:12:19.565Z,34.05
2022-08-09T17:14:49.918Z,34.05
2022-08-09T17:17:26.874Z,33.95
2022-08-09T17:20:28.461Z,33.93
2022-08-09T17:22:52.072Z,33.96
2022-08-09T17:25:21.929Z,33.93
2022-08-09T17:27:54.693Z,33.85
2022-08-09T17:30:31.037Z,33.88
2022-08-09T17:33:05.469Z,33.84
2022-08-09T17:35:54.222Z,33.72
2022-08-09T17:38:34.132Z,33.79
2022-08-09T17:41:13.245Z,33.68
2022-08-09T17:43:46.918Z,33.67
2022-08-09T17:46:19.767Z,33.62
2022-08-09T17:49:02.599Z,33.64
2022-08-09T17:51:33.197Z,33.54
2022-08-09T17:54:02.699Z,33.54
2022-08-09T17:56:36.064Z,33.48
2022-08-09T17:59:09.348Z,33.48
2022-08-09T18:02:06.824Z,33.42
2022-08-09T18:04:30.538Z,33.31
2022-08-09T18:07:07.476Z,33.30
2022-08-09T18:09:41.842Z,33.30
2022-08-09T18:12:17.541Z,33.22
2022-08-09T18:14:54.593Z,33.25
2022-08-09T18:18:01.915Z,33.16
2022-08-09T18:20:56.439Z,33.11
2022-08-09T18:23:07.914Z,33.04
2022-08-09T18:25:58.737Z,32.92
2022-08-09T18:30:41.257Z,32.99
2022-08-09T18:31:24.765Z,32.88
2022-08-09T18:33:53.953Z,32.83
2022-08-09T18:36:25.992Z,32.82
2022-08-09T18:39:02.712Z,32.75
2022-08-09T18:41:34.184Z,32.66
2022-08-09T18:44:12.524Z,32.63
2022-08-09T18:46:47.907Z,32.59
2022-08-09T18:49:21.618Z,32.54
2022-08-09T18:51:55.402Z,32.47
2022-08-09T18:54:28.681Z,32.43
2022-08-09T18:57:05.964Z,32.37
2022-08-09T18:59:37.616Z,32.28
2022-08-09T19:02:19.114Z,32.20
2022-08-09T19:05:14.533Z,32.12
2022-08-09T19:07:37.734Z,32.04
2022-08-09T19:10:13.995Z,32.00
2022-08-09T19:12:45.592Z,31.90
2022-08-09T19:15:27.936Z,31.82
2022-08-09T19:17:58.584Z,31.75
2022-08-09T19:20:34.457Z,31.68
2022-08-09T19:23:09.194Z,31.67
2022-08-09T19:26:02.327Z,31.54
2022-08-09T19:28:38.085Z,31.47
2022-08-09T19:31:07.755Z,31.42
2022-08-09T19:33:36.835Z,31.39
2022-08-09T19:36:07.201Z,31.31
2022-08-09T19:38:42.955Z,31.25
2022-08-09T19:41:33.430Z,31.20
2022-08-09T19:44:04.822Z,31.16
2022-08-09T19:46:51.059Z,30.81
2022-08-09T19:50:10.378Z,30.87
2022-08-09T19:52:19.073Z,30.93
2022-08-09T19:54:48.966Z,30.87
2022-08-09T19:57:17.419Z,30.79
2022-08-09T19:59:59.410Z,30.79
2022-08-09T20:04:12.611Z,30.72
2022-08-09T20:05:46.972Z,30.68
2022-08-09T20:08:34.993Z,30.60
2022-08-09T20:11:05.029Z,30.53
2022-08-09T20:13:37.098Z,30.48
2022-08-09T20:16:36.456Z,30.49
2022-08-09T20:19:47.440Z,30.38
2022-08-09T20:21:59.803Z,30.31
2022-08-09T20:24:53.738Z,30.27
2022-08-09T20:27:22.850Z,30.17
2022-08-09T20:29:58.196Z,30.19
2022-08-09T20:32:40.045Z,30.15
2022-08-09T20:35:17.690Z,30.13
2022-08-09T20:38:20.709Z,30.03
2022-08-09T20:40:53.621Z,29.92
2022-08-09T20:43:46.699Z,29.93
2022-08-09T20:46:42.971Z,29.85
2022-08-09T20:49:16.013Z,29.79
2022-08-09T20:51:51.008Z,29.76
2022-08-09T20:54:24.782Z,29.70
2022-08-09T20:57:00.607Z,29.66
2022-08-09T21:00:19.504Z,29.61
2022-08-09T21:02:21.529Z,29.57
2022-08-09T21:05:52.593Z,29.55
2022-08-09T21:08:01.645Z,29.45
2022-08-09T21:10:32.800Z,29.42
2022-08-09T21:13:12.376Z,29.39
2022-08-09T21:15:52.052Z,29.34
2022-08-09T21:18:27.417Z,29.33
2022-08-09T21:20:57.949Z,29.28
2022-08-09T21:23:47.457Z,29.17
2022-08-09T21:26:21.114Z,29.14
2022-08-09T21:28:55.629Z,29.07
2022-08-09T21:31:48.911Z,29.02
2022-08-09T21:34:21.126Z,29.01
2022-08-09T21:37:02.225Z,28.92
2022-08-09T21:39:43.936Z,28.94
2022-08-09T21:42:28.441Z,28.98
2022-08-09T21:45:02.234Z,28.88
2022-08-09T21:47:51.045Z,28.78
2022-08-09T21:50:35.854Z,28.82
2022-08-09T21:53:15.781Z,28.72
2022-08-09T21:56:04.973Z,28.58
2022-08-09T21:58:34.413Z,28.59
2022-08-09T22:01:05.002Z,28.54
2022-08-09T22:03:58.987Z,28.54
2022-08-09T22:06:30.771Z,28.44
2022-08-09T22:09:06.893Z,28.43
2022-08-09T22:12:06.173Z,28.37
2022-08-09T22:14:38.825Z,28.38
2022-08-09T22:17:10.653Z,28.29
2022-08-09T22:19:58.648Z,28.29
2022-08-09T22:22:34.231Z,28.20
2022-08-09T22:26:08.075Z,28.16
2022-08-09T22:28:00.490Z,28.08
2022-08-09T22:30:36.646Z,28.08
2022-08-09T22:33:10.203Z,28.08
2022-08-09T22:36:00.701Z,28.04
2022-08-09T22:38:33.775Z,27.91
2022-08-09T22:41:13.110Z,27.89
2022-08-09T22:44:02.090Z,27.95
2022-08-09T22:48:10.524Z,27.87
2022-08-09T22:49:31.841Z,27.87
2022-08-09T22:52:07.908Z,27.79
2022-08-09T22:54:42.861Z,27.79
2022-08-09T22:57:19.935Z,27.79
2022-08-09T22:59:58.941Z,27.69
2022-08-09T23:02:30.008Z,27.59
2022-08-09T23:05:00.693Z,27.59
2022-08-09T23:08:27.700Z,27.55
2022-08-09T23:10:47.915Z,27.49
2022-08-09T23:13:16.482Z,27.50
2022-08-09T23:16:02.690Z,27.49
2022-08-09T23:18:41.603Z,27.47
2022-08-09T23:21:25.066Z,27.47
2022-08-09T23:24:05.317Z,27.45
2022-08-09T23:26:41.073Z,27.50
2022-08-09T23:29:15.918Z,27.43
2022-08-09T23:31:51.316Z,27.41
2022-08-09T23:34:25.139Z,27.35
2022-08-09T23:36:53.548Z,27.37
2022-08-09T23:39:44.850Z,27.34
2022-08-09T23:42:21.013Z,27.20
2022-08-09T23:45:00.551Z,27.31
2022-08-09T23:47:39.200Z,27.28
2022-08-09T23:50:20.995Z,27.22
2022-08-09T23:53:04.104Z,27.20
2022-08-09T23:56:05.529Z,27.19
2022-08-09T23:58:29.572Z,27.11
